Main page
METAR-TAF:

METAR-TAF

Airports :

Oil platform

Sleipner, Norway

latitude: 58-22-00N, longitude: 001-54-25E, elevation: 50 m

Current weather observation

The report was made 32 minutes ago, at 20:50 UTC
Wind 15 kt from the South/Southwest
Temperature 12°C
Humidity 76%
Pressure 999 hPa
Visibility 10 km or more

METAR: ENSL 202050Z AUTO 20015KT 9999NDV /// 12/08 Q0999 W10/S5

Time: 23:22 (21:22 UTC)

Forecast

The report was made 10 hours and 22 minutes ago, at 11:00 UTC
Forecast valid from 20 at 12 UTC to 20 at 17 UTC
Wind 42 kt from the Southwest
Visibility 10 km or more
Few clouds at a height of 2500 ft
Probability 30% :
Temporary
from 20 at 12 UTC to 20 at 15 UTC
Wind 52 kt from the Southwest
Becoming
from 20 at 15 UTC to 20 at 17 UTC
Wind 32 kt from the Southwest

TAF: ENSL 201100Z 2012/2017 23042KT 9999 FEW025 PROB30 TEMPO 2012/2015 23052KT BECMG 2015/2017 23032KT

Weather observations and forecasts of more than 4000 airports (METAR and TAF reports).

The available stations are represented by yellow and red dots on the map.

Hover mouse over dot to see the name of the station.

Then click to see weather observations and forecasts.

To change the map : click on the green buttons with a black cross to zoom in, on the green button with a dash to zoom out, or on the green arrows for adjacent maps.


METAR-TAF: